Aviation Digital Data Service (ADDS)

Output produced by METARs form (0206 UTC 21 September 2018)
found at http://aviationweather.gov/metar/data/
 
METAR text: KUKI 210156Z AUTO 09004KT 10SM CLR 28/06 A2984 RMK AO2 SLP096 T02780056
Conditions at: KUKI (UKIAH , CA, US) observed 0156 UTC 21 September 2018
Temperature: 27.8°C (82°F)
Dewpoint: 5.6°C (42°F) [RH = 24%]
Pressure (altimeter): 29.84 inches Hg (1010.6 mb)
[Sea-level pressure: 1009.6 mb]
Winds: from the E (90 degrees) at 5 MPH (4 knots; 2.1 m/s)
Visibility: 10 or more miles (16+ km)
Ceiling: at least 12,000 feet AGL
Clouds: sky clear below 12,000 feet AGL
Weather: automated observation with no human augmentation;
there may or may not be significant weather present at this time

METAR text: KUKI 210056Z AUTO 31005KT 10SM CLR 32/03 A2981 RMK AO2 SLP087 T03170033
Conditions at: KUKI (UKIAH , CA, US) observed 0056 UTC 21 September 2018
Temperature: 31.7°C (89°F)
Dewpoint: 3.3°C (38°F) [RH = 17%]
Pressure (altimeter): 29.81 inches Hg (1009.6 mb)
[Sea-level pressure: 1008.7 mb]
Winds: from the NW (310 degrees) at 6 MPH (5 knots; 2.6 m/s)
Visibility: 10 or more miles (16+ km)
Ceiling: at least 12,000 feet AGL
Clouds: sky clear below 12,000 feet AGL
Weather: automated observation with no human augmentation;
there may or may not be significant weather present at this time

Forecast for: KUKI (UKIAH , CA, US)
Text: KUKI 202340Z 2100/2124 VRB04KT P6SM SKC
Forecast period: 0000 UTC 21 September 2018 to 0000 UTC 22 September 2018
Forecast type: FROM: standard forecast or significant change
Winds: variable direction winds at 5 MPH (4 knots; 2.1 m/s)
Visibility: 6 or more miles 10+ km)
Clouds: clear skies
Weather: no significant weather forecast for this period